Time;durP1;ratioP1;P1;durP2;ratioP2;P2;SDS_P1;SDS_P2;PMS_P1;PMS_P2;Temp;Humidity;BMP_temperature;BMP_pressure;BME280_temperature;BME280_humidity;BME280_pressure;Samples;Min_cycle;Max_cycle;Signal;HPM_P1;HPM_P2
2020/12/01 00:02:20;;;;;;;13.82;10.38;;;9.60;91.30;;;;;;3491388;41;20190;-82
2020/12/01 00:05:13;;;;;;;15.70;11.43;;;9.70;91.90;;;;;;3498513;33;20158;-81
2020/12/01 00:08:15;;;;;;;19.65;11.57;;;11.80;92.30;;;;;;3502994;34;20133;-81
2020/12/01 00:11:12;;;;;;;15.05;11.48;;;9.80;91.80;;;;;;3509323;41;20129;-82
2020/12/01 00:14:51;;;;;;;16.30;11.95;;;9.50;91.70;;;;;;3502772;41;20129;-83
2020/12/01 00:18:07;;;;;;;24.27;15.15;;;9.80;91.70;;;;;;3499805;41;20129;-83
2020/12/01 00:21:18;;;;;;;28.27;17.23;;;9.80;92.00;;;;;;3533943;33;20122;-82
2020/12/01 00:24:41;;;;;;;22.75;13.77;;;9.60;91.80;;;;;;3502635;33;20137;-83
2020/12/01 00:27:38;;;;;;;15.50;11.25;;;9.80;91.90;;;;;;3509070;41;20135;-82
2020/12/01 00:30:43;;;;;;;18.85;12.82;;;9.80;91.90;;;;;;3525328;33;20154;-82
2020/12/01 00:33:26;;;;;;;21.20;11.57;;;10.00;91.60;;;;;;3514133;33;20078;-82
2020/12/01 00:39:22;;;;;;;16.38;10.88;;;10.00;92.30;;;;;;3504645;33;20153;-81
2020/12/01 00:42:32;;;;;;;14.25;11.05;;;10.00;91.80;;;;;;3508328;33;20122;-82
2020/12/01 00:45:04;;;;;;;12.68;9.50;;;10.00;92.40;;;;;;3509145;33;20125;-84
2020/12/01 00:51:28;;;;;;;13.05;10.57;;;10.10;91.90;;;;;;3519290;33;20191;-82
2020/12/01 00:54:16;;;;;;;16.60;10.40;;;10.10;91.90;;;;;;3529800;33;20141;-82
2020/12/01 01:00:34;;;;;;;12.70;9.10;;;10.00;92.30;;;;;;3494585;41;20174;-82
2020/12/01 01:03:57;;;;;;;15.05;9.15;;;10.10;93.10;;;;;;3528872;33;20143;-83
2020/12/01 01:07:34;;;;;;;13.48;8.07;;;10.10;92.00;;;;;;3502830;41;20083;-84
2020/12/01 01:13:33;;;;;;;12.25;7.72;;;10.10;91.70;;;;;;3578462;28;20121;-82
2020/12/01 01:16:11;;;;;;;15.02;9.20;;;11.90;92.00;;;;;;3557466;33;20121;-82
2020/12/01 01:18:41;;;;;;;12.52;9.18;;;10.20;92.10;;;;;;3516895;40;20117;-82
2020/12/01 01:21:23;;;;;;;11.90;7.47;;;10.10;91.90;;;;;;3525401;33;20307;-83
2020/12/01 01:24:19;;;;;;;10.63;7.13;;;10.00;92.30;;;;;;3520422;40;20129;-82
2020/12/01 01:26:54;;;;;;;9.32;6.40;;;10.10;91.90;;;;;;3548661;33;20078;-83
2020/12/01 01:29:22;;;;;;;9.10;6.43;;;9.60;92.10;;;;;;3494300;41;20132;-82
2020/12/01 01:31:55;;;;;;;13.77;6.78;;;10.10;92.10;;;;;;3519956;33;20093;-83
2020/12/01 01:34:25;;;;;;;9.35;6.28;;;10.10;92.10;;;;;;3536143;33;20166;-82
2020/12/01 01:37:17;;;;;;;8.23;6.70;;;9.50;91.80;;;;;;3539733;33;20130;-81
2020/12/01 01:40:37;;;;;;;9.30;6.43;;;8.90;92.10;;;;;;3553136;33;20128;-83
2020/12/01 01:43:24;;;;;;;11.63;6.88;;;10.10;91.60;;;;;;3525179;33;20116;-82
2020/12/01 01:45:55;;;;;;;9.43;6.47;;;9.30;91.50;;;;;;3560691;33;20125;-82
2020/12/01 01:48:37;;;;;;;8.38;6.32;;;10.40;91.90;;;;;;3516492;33;20110;-82
2020/12/01 01:51:41;;;;;;;16.83;8.18;;;9.90;90.90;;;;;;3518199;40;20133;-83
2020/12/01 01:57:45;;;;;;;20.42;12.95;;;10.10;90.20;;;;;;3530406;33;20169;-82
2020/12/01 02:00:58;;;;;;;10.05;7.57;;;10.20;90.50;;;;;;3551215;33;20517;-82
2020/12/01 02:03:48;;;;;;;14.65;8.02;;;10.30;90.60;;;;;;3543026;33;20081;-84
2020/12/01 02:06:47;;;;;;;11.43;7.47;;;9.00;90.50;;;;;;3527094;40;20182;-82
2020/12/01 02:09:39;;;;;;;10.10;6.85;;;9.00;90.40;;;;;;3560243;33;20144;-83
2020/12/01 02:13:00;;;;;;;15.27;9.05;;;9.30;90.10;;;;;;3564786;33;20125;-83
2020/12/01 02:16:07;;;;;;;13.30;7.38;;;10.30;90.80;;;;;;3515747;33;20113;-83
2020/12/01 02:18:57;;;;;;;19.92;8.75;;;10.20;91.40;;;;;;3500251;41;20125;-82
2020/12/01 02:21:55;;;;;;;13.80;8.20;;;10.00;91.30;;;;;;3505989;41;20121;-81
2020/12/01 02:28:21;;;;;;;12.93;8.27;;;10.10;91.00;;;;;;3569706;33;20132;-83
2020/12/01 02:31:07;;;;;;;;;;;10.20;91.00;;;;;;3544248;33;20113;-82
2020/12/01 02:34:53;;;;;;;11.07;8.10;;;11.40;91.10;;;;;;3537004;33;19966;-85
2020/12/01 02:38:04;;;;;;;9.68;7.75;;;10.10;90.70;;;;;;3538562;33;20121;-83
2020/12/01 02:44:27;;;;;;;;;;;10.00;90.30;;;;;;3523913;33;20197;-83
2020/12/01 02:46:56;;;;;;;12.93;7.25;;;10.00;90.60;;;;;;3532888;33;20009;-82
2020/12/01 02:50:01;;;;;;;12.45;7.53;;;10.70;90.90;;;;;;3511679;33;20109;-82
2020/12/01 02:53:17;;;;;;;8.13;6.38;;;10.00;91.40;;;;;;3566852;33;20113;-81
2020/12/01 02:56:27;;;;;;;11.80;8.00;;;10.20;90.30;;;;;;3509482;40;20174;-85
2020/12/01 02:59:27;;;;;;;13.98;8.35;;;10.40;90.10;;;;;;3530332;33;20153;-82
2020/12/01 03:02:40;;;;;;;12.80;8.13;;;9.50;91.20;;;;;;3516313;41;20133;-82
2020/12/01 03:05:47;;;;;;;12.27;8.25;;;10.10;90.70;;;;;;3497881;33;20122;-82
2020/12/01 03:08:26;;;;;;;10.70;7.32;;;8.70;90.00;;;;;;3510879;41;20090;-82
2020/12/01 03:12:12;;;;;;;11.18;7.40;;;9.30;90.70;;;;;;3549522;33;20121;-82
2020/12/01 03:15:11;;;;;;;8.63;6.20;;;10.30;90.50;;;;;;3505071;41;20138;-82
2020/12/01 03:18:00;;;;;;;9.25;6.20;;;9.10;90.70;;;;;;3514845;40;20184;-80
2020/12/01 03:21:03;;;;;;;10.02;5.38;;;10.10;90.80;;;;;;3514658;40;20149;-82
2020/12/01 03:24:12;;;;;;;7.82;5.65;;;10.10;91.20;;;;;;3517915;40;20128;-83
2020/12/01 03:37:14;;;;;;;7.95;5.50;;;10.10;91.20;;;;;;3530853;33;20143;-84
2020/12/01 03:39:59;;;;;;;6.72;4.65;;;10.10;91.00;;;;;;3501074;33;20144;-83
2020/12/01 03:46:39;;;;;;;5.95;5.00;;;10.10;90.60;;;;;;3549643;33;20150;-82
2020/12/01 03:49:31;;;;;;;6.07;4.43;;;10.00;91.30;;;;;;3518097;41;20065;-82
2020/12/01 03:55:31;;;;;;;36.95;21.45;;;10.10;91.10;;;;;;3502336;33;20136;-83
2020/12/01 04:11:20;;;;;;;20.20;13.15;;;10.10;91.40;;;;;;3532140;33;20167;-83
2020/12/01 04:14:09;;;;;;;13.68;9.15;;;10.00;91.10;;;;;;3484471;41;20125;-82
2020/12/01 04:16:52;;;;;;;13.45;8.75;;;10.00;91.10;;;;;;3514186;33;20137;-82
2020/12/01 04:23:41;;;;;;;17.80;11.75;;;10.10;90.90;;;;;;3548375;33;20128;-81
2020/12/01 04:26:41;;;;;;;14.77;10.60;;;10.20;91.10;;;;;;3527482;40;20089;-83
2020/12/01 04:30:06;;;;;;;11.45;7.28;;;9.40;90.70;;;;;;3527127;40;20113;-82
2020/12/01 04:36:01;;;;;;;9.18;4.68;;;10.30;87.80;;;;;;3522813;33;20125;-82
2020/12/01 04:39:11;;;;;;;9.82;5.25;;;10.30;86.50;;;;;;3511859;41;20133;-83
2020/12/01 04:42:24;;;;;;;7.68;4.82;;;10.20;87.10;;;;;;3515493;40;20154;-83
2020/12/01 04:48:45;;;;;;;11.05;5.18;;;10.10;87.20;;;;;;3555906;33;20128;-82
2020/12/01 04:51:49;;;;;;;10.52;5.47;;;10.20;89.30;;;;;;3527769;40;20121;-83
2020/12/01 04:54:46;;;;;;;7.75;5.75;;;12.30;90.50;;;;;;3563112;33;20086;-83
2020/12/01 04:57:56;;;;;;;9.13;5.90;;;8.70;88.50;;;;;;3521234;33;20136;-82
2020/12/01 05:01:01;;;;;;;7.82;5.10;;;10.20;90.10;;;;;;3510305;41;20090;-82
2020/12/01 05:04:14;;;;;;;6.28;5.18;;;10.10;90.20;;;;;;3517101;41;20189;-81
2020/12/01 05:07:42;;;;;;;9.20;5.28;;;11.20;90.30;;;;;;3527005;40;20094;-81
2020/12/01 05:10:48;;;;;;;7.05;5.47;;;10.20;90.10;;;;;;3508690;41;20137;-82
2020/12/01 05:13:54;;;;;;;9.75;5.30;;;10.10;90.20;;;;;;3552685;33;20114;-82
2020/12/01 05:17:35;;;;;;;8.45;4.03;;;10.10;90.40;;;;;;3514293;41;20138;-80
2020/12/01 05:21:10;;;;;;;7.45;4.22;;;9.50;90.20;;;;;;3518616;41;20133;-82
2020/12/01 05:27:58;;;;;;;6.97;4.63;;;8.40;89.30;;;;;;3520342;33;20094;-83
2020/12/01 05:37:34;;;;;;;5.65;4.55;;;11.10;89.50;;;;;;3499666;41;20119;-82
2020/12/01 05:44:21;;;;;;;5.50;3.80;;;9.60;89.90;;;;;;3520483;33;20081;-83
2020/12/01 05:47:53;;;;;;;7.53;4.07;;;11.20;90.10;;;;;;3564498;33;20074;-82
2020/12/01 05:51:12;;;;;;;7.45;4.10;;;10.50;89.60;;;;;;3568456;33;20070;-82
2020/12/01 05:54:40;;;;;;;8.10;4.43;;;10.40;89.70;;;;;;3527939;40;20133;-83
2020/12/01 05:58:02;;;;;;;5.75;3.83;;;10.80;90.10;;;;;;3559879;33;20089;-84
2020/12/01 06:01:12;;;;;;;8.10;4.15;;;9.60;90.30;;;;;;3525317;40;20129;-84
2020/12/01 06:04:48;;;;;;;6.50;4.78;;;9.90;90.20;;;;;;3562157;33;20145;-83
2020/12/01 06:15:02;;;;;;;8.45;5.53;;;10.60;91.10;;;;;;3524578;27;20109;-82
2020/12/01 06:18:26;;;;;;;6.43;4.22;;;9.80;91.10;;;;;;3517533;33;20109;-83
2020/12/01 06:21:21;;;;;;;5.70;4.20;;;10.50;91.30;;;;;;3510684;40;20157;-82
2020/12/01 06:24:31;;;;;;;5.03;3.72;;;10.80;91.20;;;;;;3550922;33;20106;-84
2020/12/01 06:27:44;;;;;;;5.47;3.85;;;10.70;91.10;;;;;;3518651;33;20126;-82
2020/12/01 06:30:50;;;;;;;7.75;4.35;;;12.10;91.60;;;;;;3549137;33;20133;-84
2020/12/01 06:34:10;;;;;;;10.52;4.63;;;10.60;91.30;;;;;;3502569;41;20130;-82
2020/12/01 06:37:27;;;;;;;7.18;4.22;;;10.70;91.40;;;;;;3519277;40;20157;-82
2020/12/01 06:40:47;;;;;;;7.93;5.00;;;9.20;91.20;;;;;;3526796;40;20136;-81
2020/12/01 06:43:24;;;;;;;6.90;4.88;;;10.70;91.40;;;;;;3542764;33;20082;-84
2020/12/01 06:46:44;;;;;;;5.70;4.50;;;10.90;91.90;;;;;;3513956;40;20098;-83
2020/12/01 06:50:01;;;;;;;9.82;4.97;;;10.70;90.50;;;;;;3522490;40;20130;-83
2020/12/01 06:53:08;;;;;;;11.27;7.47;;;10.60;90.60;;;;;;3524286;40;20102;-83
2020/12/01 06:59:22;;;;;;;7.75;5.32;;;10.60;91.50;;;;;;3506174;34;20134;-83
2020/12/01 07:03:11;;;;;;;11.25;6.00;;;10.60;91.40;;;;;;3507342;33;20067;-83
2020/12/01 07:05:51;;;;;;;11.55;7.93;;;10.70;90.50;;;;;;3523397;35;20101;-82
2020/12/01 07:11:52;;;;;;;;;;;10.60;88.80;;;;;;3520594;33;20128;-82
2020/12/01 07:14:31;;;;;;;8.20;5.50;;;10.50;89.80;;;;;;3508282;40;20198;-83
2020/12/01 07:17:38;;;;;;;10.13;5.50;;;10.60;90.40;;;;;;3511555;33;20114;-84
2020/12/01 07:20:52;;;;;;;8.18;5.88;;;10.70;91.00;;;;;;3522289;33;20148;-83
2020/12/01 07:27:12;;;;;;;13.98;8.20;;;13.10;91.40;;;;;;3537135;33;20070;-83
2020/12/01 07:30:17;;;;;;;9.65;7.28;;;10.80;89.00;;;;;;3516366;40;20141;-84
2020/12/01 07:33:29;;;;;;;12.35;7.68;;;10.90;89.50;;;;;;3532083;33;20129;-82
2020/12/01 07:36:18;;;;;;;16.60;7.20;;;10.70;89.90;;;;;;3509270;41;20101;-84
2020/12/01 07:39:26;;;;;;;11.60;6.10;;;11.00;87.80;;;;;;3518047;41;20156;-82
2020/12/01 07:42:24;;;;;;;12.85;7.13;;;10.10;88.10;;;;;;3526521;40;20074;-82
2020/12/01 07:45:15;;;;;;;19.17;8.85;;;11.10;88.10;;;;;;3517010;41;20169;-83
2020/12/01 07:47:45;;;;;;;17.15;8.48;;;11.00;87.30;;;;;;3501433;41;20081;-82
2020/12/01 07:50:22;;;;;;;11.18;7.20;;;11.00;87.40;;;;;;3556020;33;20160;-82
2020/12/01 07:52:57;;;;;;;;;;;10.80;87.80;;;;;;3516741;41;20136;-81
2020/12/01 07:55:37;;;;;;;9.75;6.60;;;10.20;86.70;;;;;;3505648;41;20021;-80
2020/12/01 07:58:25;;;;;;;10.93;6.10;;;11.00;86.40;;;;;;3516193;41;20133;-82
2020/12/01 08:01:14;;;;;;;8.43;6.72;;;11.10;86.90;;;;;;3550492;33;20142;-83
2020/12/01 08:03:50;;;;;;;11.05;6.30;;;11.20;86.60;;;;;;3541806;33;20133;-84
2020/12/01 08:06:19;;;;;;;13.57;8.77;;;11.20;86.70;;;;;;3516717;40;20121;-82
2020/12/01 08:08:46;;;;;;;12.57;6.85;;;11.10;87.00;;;;;;3526179;33;20133;-83
2020/12/01 08:11:16;;;;;;;10.88;5.53;;;11.00;86.30;;;;;;3519086;41;20122;-84
2020/12/01 08:13:43;;;;;;;11.75;6.05;;;13.20;87.30;;;;;;3518052;41;20095;-82
2020/12/01 08:16:26;;;;;;;13.00;7.20;;;10.90;86.80;;;;;;3535465;33;20118;-83
2020/12/01 08:18:55;;;;;;;14.60;9.02;;;11.10;88.10;;;;;;3522764;33;20589;-83
2020/12/01 08:21:37;;;;;;;13.93;7.75;;;11.20;88.10;;;;;;3519160;41;20073;-83
2020/12/01 08:24:17;;;;;;;12.10;7.55;;;11.20;87.60;;;;;;3514836;33;20070;-82
2020/12/01 08:26:46;;;;;;;11.60;7.75;;;10.00;87.30;;;;;;3518948;40;20121;-83
2020/12/01 08:29:29;;;;;;;10.43;7.60;;;11.40;88.10;;;;;;3511734;40;20166;-83
2020/12/01 08:32:07;;;;;;;10.77;8.32;;;11.50;88.50;;;;;;3518308;40;20121;-82
2020/12/01 08:34:56;;;;;;;12.82;7.53;;;11.50;89.80;;;;;;3516688;40;20066;-81
2020/12/01 08:37:44;;;;;;;15.73;8.63;;;12.00;87.90;;;;;;3548413;33;20161;-82
2020/12/01 08:40:14;;;;;;;16.27;8.68;;;11.90;89.70;;;;;;3516741;40;20086;-83
2020/12/01 08:43:26;;;;;;;15.75;10.18;;;12.00;88.80;;;;;;3517271;33;20127;-83
2020/12/01 08:46:21;;;;;;;10.07;7.47;;;12.30;88.00;;;;;;3517089;40;20138;-83
2020/12/01 08:53:16;;;;;;;14.95;8.68;;;11.90;87.00;;;;;;3527713;33;20170;-83
2020/12/01 08:56:03;;;;;;;11.77;7.40;;;12.00;85.90;;;;;;3525600;33;20146;-82
2020/12/01 08:58:52;;;;;;;8.18;6.82;;;11.70;84.30;;;;;;3524721;40;20129;-82
2020/12/01 09:01:39;;;;;;;10.38;7.53;;;12.10;83.20;;;;;;3517586;40;20169;-84
2020/12/01 09:07:43;;;;;;;16.05;8.93;;;12.00;83.10;;;;;;3526570;33;20120;-82
2020/12/01 09:10:29;;;;;;;10.18;8.25;;;12.10;85.10;;;;;;3517284;40;20129;-84
2020/12/01 09:13:31;;;;;;;11.90;8.90;;;12.30;84.70;;;;;;3561515;33;20133;-82
2020/12/01 09:16:23;;;;;;;9.55;7.05;;;12.30;83.50;;;;;;3525783;40;20137;-83
2020/12/01 09:22:50;;;;;;;14.85;10.57;;;12.90;80.60;;;;;;3568050;33;20134;-82
2020/12/01 09:25:58;;;;;;;10.50;8.60;;;13.20;79.90;;;;;;3523195;40;20133;-81
2020/12/01 09:28:56;;;;;;;11.52;9.10;;;13.50;79.90;;;;;;3558607;33;20148;-84
2020/12/01 09:31:32;;;;;;;14.45;8.80;;;13.70;79.30;;;;;;3507417;40;20125;-84
2020/12/01 09:34:08;;;;;;;16.17;9.07;;;13.60;77.60;;;;;;3528053;33;20117;-83
2020/12/01 09:37:05;;;;;;;13.68;8.23;;;14.40;76.90;;;;;;3514977;40;20123;-84
2020/12/01 09:39:38;;;;;;;23.27;15.80;;;14.60;75.20;;;;;;3524319;40;20113;-82
2020/12/01 09:42:31;;;;;;;17.52;11.25;;;14.40;76.50;;;;;;3564196;33;20116;-81
2020/12/01 09:45:27;;;;;;;14.45;9.98;;;14.50;76.60;;;;;;3523984;40;20129;-82
2020/12/01 09:48:05;;;;;;;14.13;9.65;;;15.20;75.10;;;;;;3538366;33;20120;-84
2020/12/01 09:50:41;;;;;;;12.73;8.73;;;15.80;74.40;;;;;;3524497;40;20109;-82
2020/12/01 10:27:26;;;;;;;22.27;14.13;;;17.40;66.50;;;;;;3506012;41;20133;-85
2020/12/01 10:36:29;;;;;;;12.73;9.48;;;17.10;68.40;;;;;;3515154;41;20009;-83
2020/12/01 10:39:12;;;;;;;17.45;9.77;;;16.70;67.50;;;;;;3505544;41;20185;-83
2020/12/01 10:42:06;;;;;;;10.63;7.65;;;17.10;68.40;;;;;;3514695;41;20170;-83
2020/12/01 10:45:06;;;;;;;24.10;15.93;;;17.20;67.60;;;;;;3556933;33;20114;-83
2020/12/01 10:47:43;;;;;;;9.02;7.03;;;17.20;68.60;;;;;;3504417;41;20169;-82
2020/12/01 10:50:12;;;;;;;11.13;6.85;;;17.20;67.70;;;;;;3504628;41;20129;-84
2020/12/01 10:52:39;;;;;;;12.15;9.23;;;16.70;68.90;;;;;;3524137;33;20151;-81
2020/12/01 10:55:21;;;;;;;18.30;13.13;;;16.80;70.30;;;;;;3497356;33;20179;-84
2020/12/01 11:01:30;;;;;;;13.68;7.45;;;15.50;69.60;;;;;;3514816;41;20136;-81
2020/12/01 11:03:58;;;;;;;17.00;12.20;;;16.60;69.50;;;;;;3514944;41;20128;-83
2020/12/01 11:07:02;;;;;;;10.85;7.28;;;16.70;69.80;;;;;;3515205;41;20153;-82
2020/12/01 11:10:14;;;;;;;7.10;5.32;;;15.70;69.60;;;;;;3510220;41;20443;-83
2020/12/01 11:12:45;;;;;;;;;;;16.60;70.40;;;;;;3530614;33;20097;-82
2020/12/01 11:15:39;;;;;;;12.65;8.63;;;16.90;70.40;;;;;;3559155;33;20155;-84
2020/12/01 11:18:49;;;;;;;16.30;7.90;;;16.10;69.50;;;;;;3526600;33;20186;-83
2020/12/01 11:21:52;;;;;;;14.68;7.28;;;16.80;69.60;;;;;;3509381;41;20250;-81
2020/12/01 11:25:24;;;;;;;12.73;9.50;;;17.30;69.10;;;;;;3537212;33;20113;-84
2020/12/01 11:29:06;;;;;;;14.23;7.30;;;17.40;68.20;;;;;;3556747;33;20126;-83
2020/12/01 11:32:18;;;;;;;13.20;9.45;;;17.70;68.30;;;;;;3525725;33;20109;-84
2020/12/01 11:34:53;;;;;;;12.27;8.68;;;17.50;67.70;;;;;;3529492;33;20120;-85
2020/12/01 11:37:32;;;;;;;12.00;9.38;;;17.50;67.70;;;;;;3517842;40;20070;-86
2020/12/01 11:40:21;;;;;;;16.02;10.60;;;17.30;70.00;;;;;;3517697;40;20125;-83
2020/12/01 11:42:54;;;;;;;14.85;9.52;;;17.00;69.10;;;;;;3561064;33;20082;-84
2020/12/01 11:46:05;;;;;;;14.00;9.93;;;16.50;69.20;;;;;;3518554;40;20130;-85
2020/12/01 11:49:01;;;;;;;10.82;8.93;;;18.00;68.00;;;;;;3506416;41;20081;-85
2020/12/01 11:55:24;;;;;;;14.60;11.02;;;17.50;68.30;;;;;;3521045;33;20125;-83
2020/12/01 11:58:40;;;;;;;18.13;9.50;;;17.60;69.20;;;;;;3527074;33;20113;-85
2020/12/01 12:02:17;;;;;;;13.30;8.60;;;17.50;70.00;;;;;;3547891;33;20125;-83
2020/12/01 12:05:26;;;;;;;13.82;9.35;;;16.70;69.60;;;;;;3526731;33;20156;-85
2020/12/01 12:08:12;;;;;;;14.45;9.35;;;16.90;70.40;;;;;;3529843;40;20120;-83
2020/12/01 12:11:29;;;;;;;18.77;9.45;;;17.40;71.40;;;;;;3530153;33;20157;-84
2020/12/01 12:14:02;;;;;;;11.93;8.18;;;16.80;71.10;;;;;;3520513;40;20108;-85
2020/12/01 12:16:37;;;;;;;11.50;8.67;;;18.40;72.20;;;;;;3519772;40;20117;-84
2020/12/01 12:19:40;;;;;;;11.38;7.80;;;17.30;71.30;;;;;;3529145;40;20191;-84
2020/12/01 12:22:19;;;;;;;17.10;12.50;;;17.50;71.40;;;;;;3540385;33;20129;-85
2020/12/01 12:25:20;;;;;;;30.45;21.17;;;16.70;72.20;;;;;;3525431;40;20177;-85
2020/12/01 12:28:00;;;;;;;11.63;9.23;;;17.20;72.40;;;;;;3512457;40;20113;-84
2020/12/01 12:31:12;;;;;;;9.57;7.22;;;17.00;73.90;;;;;;3520899;40;20085;-83
2020/12/01 12:34:08;;;;;;;13.85;8.73;;;17.10;74.10;;;;;;3551621;33;20117;-86
2020/12/01 12:36:39;;;;;;;16.65;13.05;;;16.90;73.40;;;;;;3521489;40;20165;-85
2020/12/01 12:39:25;;;;;;;17.02;7.78;;;16.80;74.90;;;;;;3528991;40;20169;-85
2020/12/01 12:42:25;;;;;;;5.82;4.70;;;16.50;75.50;;;;;;3524240;40;20136;-83
2020/12/01 12:45:42;;;;;;;6.75;4.50;;;16.90;74.90;;;;;;3562540;33;20114;-84
2020/12/01 12:48:36;;;;;;;9.50;6.55;;;17.00;75.40;;;;;;3530346;33;20098;-85
2020/12/01 12:51:07;;;;;;;9.13;7.18;;;17.30;75.20;;;;;;3518398;40;20130;-85
2020/12/01 12:53:33;;;;;;;8.82;7.20;;;17.10;75.40;;;;;;3547907;33;20130;-83
2020/12/01 12:56:07;;;;;;;12.35;6.50;;;16.90;76.40;;;;;;3549570;33;20192;-83
2020/12/01 12:59:13;;;;;;;7.82;5.85;;;16.20;76.50;;;;;;3516507;41;20121;-84
2020/12/01 13:02:12;;;;;;;32.30;20.60;;;16.00;76.60;;;;;;3516124;41;20122;-84
2020/12/01 13:05:00;;;;;;;13.07;6.68;;;15.90;77.80;;;;;;3547242;33;20106;-84
2020/12/01 13:08:14;;;;;;;11.15;5.93;;;16.40;78.00;;;;;;3529141;33;20173;-83
2020/12/01 13:11:12;;;;;;;6.78;6.07;;;15.80;77.90;;;;;;3527042;33;20132;-84
2020/12/01 13:13:43;;;;;;;7.00;5.93;;;16.00;77.30;;;;;;3555696;33;20132;-83
2020/12/01 13:16:26;;;;;;;6.30;5.28;;;16.60;77.50;;;;;;3508109;41;20164;-84
2020/12/01 13:18:54;;;;;;;10.13;7.30;;;16.80;77.30;;;;;;3501336;41;20602;-83
2020/12/01 13:21:27;;;;;;;9.32;6.38;;;16.70;77.10;;;;;;3507067;41;20157;-83
2020/12/01 13:24:25;;;;;;;3.95;3.55;;;17.50;75.40;;;;;;3517349;33;20185;-84
2020/12/01 13:27:32;;;;;;;7.82;5.43;;;17.90;73.30;;;;;;3521100;33;20128;-84
2020/12/01 13:30:28;;;;;;;7.35;5.90;;;17.60;73.10;;;;;;3537178;33;20590;-82
2020/12/01 13:33:26;;;;;;;7.03;4.75;;;17.30;73.40;;;;;;3516946;41;20149;-82
2020/12/01 13:36:12;;;;;;;4.60;3.40;;;17.20;74.00;;;;;;3513530;33;20082;-83
2020/12/01 13:38:43;;;;;;;6.70;4.30;;;17.40;73.70;;;;;;3515386;41;20215;-82
2020/12/01 13:41:16;;;;;;;9.48;5.35;;;17.60;73.50;;;;;;3510744;41;20705;-83
2020/12/01 13:43:46;;;;;;;8.38;5.50;;;17.60;73.90;;;;;;3529108;33;20118;-84
2020/12/01 13:46:20;;;;;;;6.03;5.40;;;17.60;73.40;;;;;;3509411;41;20121;-84
2020/12/01 13:48:47;;;;;;;8.20;4.53;;;17.70;73.70;;;;;;3522399;33;20129;-84
2020/12/01 13:51:24;;;;;;;5.50;3.53;;;17.50;74.10;;;;;;3519106;40;20117;-84
2020/12/01 13:53:53;;;;;;;8.38;5.43;;;17.40;73.00;;;;;;3528812;40;20133;-83
2020/12/01 13:56:23;;;;;;;9.50;5.82;;;17.10;75.10;;;;;;3518993;40;20114;-84
2020/12/01 13:58:52;;;;;;;8.77;5.65;;;17.00;75.20;;;;;;3524888;33;20117;-83
2020/12/01 14:01:18;;;;;;;8.57;5.18;;;16.90;74.70;;;;;;3517804;40;20110;-82
2020/12/01 14:03:48;;;;;;;7.85;4.72;;;17.60;75.80;;;;;;3528521;33;20109;-82
2020/12/01 14:06:18;;;;;;;4.93;4.10;;;16.80;75.10;;;;;;3519637;40;20125;-85
2020/12/01 14:08:47;;;;;;;8.48;4.38;;;16.70;75.70;;;;;;3513278;40;20121;-85
2020/12/01 14:11:17;;;;;;;5.15;3.40;;;17.20;75.90;;;;;;3519726;40;20157;-85
2020/12/01 14:13:45;;;;;;;7.53;4.32;;;16.20;77.20;;;;;;3519632;40;20620;-84
2020/12/01 14:16:11;;;;;;;9.00;3.88;;;16.90;77.60;;;;;;3521513;33;20633;-85
2020/12/01 14:27:08;;;;;;;9.02;6.38;;;16.60;79.30;;;;;;3888846;27;20087;-84
2020/12/01 14:33:37;;;;;;;11.00;6.75;;;16.10;80.00;;;;;;3840792;27;20128;-84
2020/12/01 14:36:07;;;;;;;9.52;6.55;;;15.40;80.40;;;;;;3517256;40;20097;-83
2020/12/01 14:43:54;;;;;;;10.05;7.65;;;16.20;82.90;;;;;;3594978;27;20121;-84
2020/12/01 14:49:31;;;;;;;9.57;6.40;;;16.10;83.00;;;;;;3685472;27;20052;-83
2020/12/01 14:52:31;;;;;;;10.40;7.40;;;15.80;83.90;;;;;;3506096;41;20090;-84
2020/12/01 14:55:29;;;;;;;13.30;7.68;;;15.70;84.80;;;;;;3531818;33;20110;-86
2020/12/01 14:58:36;;;;;;;17.15;8.63;;;15.40;86.50;;;;;;3506831;41;20122;-83
2020/12/01 15:01:34;;;;;;;11.38;8.35;;;15.10;86.90;;;;;;3516040;41;20117;-83
2020/12/01 15:04:44;;;;;;;9.50;7.00;;;15.10;87.70;;;;;;3507809;33;20169;-84
2020/12/01 15:07:47;;;;;;;13.15;7.85;;;15.00;88.50;;;;;;3516315;33;20078;-83
2020/12/01 15:10:55;;;;;;;13.05;9.30;;;15.30;89.20;;;;;;3532642;33;20161;-84
2020/12/01 15:13:54;;;;;;;20.67;12.25;;;14.80;89.80;;;;;;3526677;33;20117;-85
2020/12/01 15:17:03;;;;;;;25.17;17.23;;;14.60;90.10;;;;;;3509356;41;20125;-88
2020/12/01 15:20:15;;;;;;;29.20;18.95;;;13.80;90.10;;;;;;3506055;33;20130;-85
2020/12/01 15:23:21;;;;;;;27.15;19.15;;;15.50;90.80;;;;;;3503737;33;20655;-84
2020/12/01 15:26:17;;;;;;;43.95;32.17;;;14.50;90.70;;;;;;3507061;41;20117;-84
2020/12/01 15:29:09;;;;;;;48.05;27.27;;;14.90;91.10;;;;;;3521126;33;20144;-84
2020/12/01 15:32:21;;;;;;;36.00;25.17;;;14.30;91.20;;;;;;3556263;33;20166;-84
2020/12/01 15:35:31;;;;;;;54.50;34.42;;;13.00;91.00;;;;;;3643308;39;20207;-81
2020/12/01 15:38:20;;;;;;;53.78;37.63;;;14.20;91.40;;;;;;3634419;39;20120;-83
2020/12/01 15:40:59;;;;;;;74.63;47.08;;;14.20;91.40;;;;;;3638005;32;20128;-83
2020/12/01 15:43:37;;;;;;;79.80;56.45;;;13.60;91.50;;;;;;3634889;32;20125;-82
2020/12/01 15:46:13;;;;;;;60.05;39.63;;;14.10;91.80;;;;;;3634528;32;20146;-83
2020/12/01 15:48:41;;;;;;;43.08;29.83;;;14.20;91.40;;;;;;3643952;39;20128;-82
2020/12/01 15:51:22;;;;;;;31.52;21.42;;;14.10;91.20;;;;;;3643006;39;20142;-82
2020/12/01 15:54:08;;;;;;;25.83;17.50;;;14.00;91.50;;;;;;3643020;39;20181;-83
2020/12/01 15:57:15;;;;;;;36.53;21.25;;;12.00;90.70;;;;;;3635444;32;20132;-84
2020/12/01 16:00:00;;;;;;;28.52;20.10;;;14.10;91.40;;;;;;3633345;32;20146;-81
2020/12/01 16:02:41;;;;;;;28.92;20.83;;;11.80;91.80;;;;;;3639497;31;20109;-82
2020/12/01 16:05:33;;;;;;;31.70;21.10;;;13.90;91.70;;;;;;3656050;32;20127;-83
2020/12/01 16:08:37;;;;;;;37.00;26.85;;;13.80;92.00;;;;;;3623975;39;20187;-81
2020/12/01 16:11:17;;;;;;;38.28;26.55;;;13.70;92.30;;;;;;3632639;39;20125;-81
2020/12/01 16:14:37;;;;;;;41.80;28.35;;;13.60;92.50;;;;;;3635830;31;20541;-82
2020/12/01 16:17:27;;;;;;;37.65;25.35;;;15.50;93.10;;;;;;3601520;39;20118;-83
2020/12/01 16:20:09;;;;;;;36.28;23.98;;;13.20;92.70;;;;;;3633629;32;20106;-82
2020/12/01 16:22:37;;;;;;;41.30;27.02;;;14.40;93.00;;;;;;3617573;39;20133;-84
2020/12/01 16:25:07;;;;;;;40.33;27.35;;;13.60;93.10;;;;;;3641276;32;20148;-82
2020/12/01 16:27:58;;;;;;;42.67;26.88;;;13.50;93.20;;;;;;3641275;39;20134;-83
2020/12/01 16:30:35;;;;;;;45.45;29.92;;;13.60;93.00;;;;;;3624832;32;20113;-83
2020/12/01 16:33:02;;;;;;;45.35;30.58;;;13.60;93.00;;;;;;3640400;39;20144;-83
2020/12/01 16:35:33;;;;;;;47.47;34.20;;;13.60;93.40;;;;;;3644979;31;20117;-84
2020/12/01 16:38:17;;;;;;;50.80;34.28;;;13.60;93.70;;;;;;3645667;31;20549;-81
2020/12/01 16:41:19;;;;;;;51.05;37.15;;;14.40;94.60;;;;;;3632396;39;20116;-82
2020/12/01 16:44:14;;;;;;;49.95;35.25;;;13.30;94.00;;;;;;3649544;32;20206;-82
2020/12/01 16:46:55;;;;;;;46.58;33.90;;;12.90;94.40;;;;;;3639348;31;20149;-81
2020/12/01 16:50:03;;;;;;;48.78;35.08;;;13.50;94.30;;;;;;3656230;32;20204;-82
2020/12/01 16:53:24;;;;;;;41.38;29.13;;;12.60;94.40;;;;;;3582006;32;20116;-82
2020/12/01 16:56:27;;;;;;;37.90;27.58;;;12.90;94.00;;;;;;3631225;39;20133;-81
2020/12/01 16:59:35;;;;;;;39.50;24.42;;;13.40;94.50;;;;;;3624048;39;20129;-82
2020/12/01 17:02:18;;;;;;;38.33;24.55;;;13.10;94.20;;;;;;3640364;32;20153;-82
2020/12/01 17:05:07;;;;;;;43.80;28.25;;;13.30;94.40;;;;;;3631069;31;20174;-81
2020/12/01 17:07:34;;;;;;;36.00;25.95;;;12.60;95.10;;;;;;3630647;39;20120;-82
2020/12/01 17:10:34;;;;;;;44.83;28.25;;;13.20;96.00;;;;;;3622534;32;20142;-82
2020/12/01 17:13:51;;;;;;;42.22;30.45;;;12.40;94.80;;;;;;3622243;39;20129;-81
2020/12/01 17:16:46;;;;;;;36.95;28.55;;;12.40;95.20;;;;;;3624207;39;20134;-82
2020/12/01 17:19:13;;;;;;;50.50;35.28;;;13.00;95.80;;;;;;3620846;39;20121;-82
2020/12/01 17:22:07;;;;;;;49.03;34.65;;;12.90;97.50;;;;;;3628763;39;20587;-80
2020/12/01 17:24:46;;;;;;;53.40;36.50;;;13.00;96.70;;;;;;3629867;32;20635;-84
2020/12/01 17:27:34;;;;;;;48.75;36.38;;;13.00;97.00;;;;;;3614335;32;20114;-81
2020/12/01 17:30:17;;;;;;;50.45;37.75;;;12.90;97.10;;;;;;3626422;32;20624;-82
2020/12/01 17:33:44;;;;;;;37.22;28.42;;;12.80;97.20;;;;;;3622345;32;20732;-82
2020/12/01 17:36:20;;;;;;;42.40;28.63;;;12.80;97.40;;;;;;3593588;32;20130;-81
2020/12/01 17:39:30;;;;;;;47.58;33.30;;;12.70;97.10;;;;;;3588309;32;20723;-80
2020/12/01 17:42:16;;;;;;;42.45;32.50;;;12.70;97.30;;;;;;3609491;39;20537;-81
2020/12/01 17:45:31;;;;;;;53.38;36.65;;;12.70;97.80;;;;;;3619796;32;20606;-80
2020/12/01 17:48:30;;;;;;;36.95;28.02;;;11.70;97.70;;;;;;3583165;32;20216;-80